Skegness, United Kingdom
Current Conditions -  °F | °C
As of 11:06 AM on Friday 28 Nov 2014 (Local Time) from EGXC Reporting Station
Drizzle Drizzle  
Wind Chill: 52°   Ceiling: 400
Heat Index: 52°   Visibility: 1.7mi
Dew Point: 52°   Wind: 14mph
Humidity: 100%   Direction: 90°E
Pressure: 29.68"   Gusts: NA
Location:  53.14°N, 0.34°E
Report Text: EGXC 281106Z 09012KT 2800 -DZ BKN004 OVC006 11/11 Q1005 YLO2 TEMPO FEW004 YLO1
Loading
Personal Weather Stations






























Interactive Weather Map New forecast layout! Learn more

10-Day Weather Forecast

Advertisements
Track Severe Weather on mobile